Aviation Digital Data Service (ADDS)

Output produced by METARs form (1020 UTC 23 September 2014)
found at http://aviationweather.gov/adds/metars/
 
KACK 230849Z 2309/2406 33011G20KT P6SM SKC 
     FM231400 34009KT P6SM SKC 
     FM232000 29007KT P6SM SKC 
     FM240000 VRB03KT P6SM SKC